Time;durP1;ratioP1;P1;durP2;ratioP2;P2;SDS_P1;SDS_P2;PMS_P1;PMS_P2;Temp;Humidity;BMP_temperature;BMP_pressure;BME280_temperature;BME280_humidity;BME280_pressure;Samples;Min_cycle;Max_cycle;Signal;HPM_P1;HPM_P2
2022/06/04 00:01:13;;;;;;;;;;;;;;;12.91;68.81;100949.39;84808;1327;22917;-71
2022/06/04 00:03:19;;;;;;;;;;;;;;;12.93;68.90;100948.63;84798;1327;22614;-71
2022/06/04 00:05:26;;;;;;;;;;;;;;;12.95;68.73;100944.88;84785;1326;25360;-71
2022/06/04 00:07:32;;;;;;;;;;;;;;;12.96;68.54;100948.02;84788;1327;22584;-71
2022/06/04 00:15:28;;;;;;;;;;;;;;;12.96;68.47;100940.66;84797;1327;22582;-71
2022/06/04 00:16:59;;;;;;;;;;;;;;;12.95;68.08;100938.39;84749;1327;25952;-71
2022/06/04 00:19:05;;;;;;;;;;;;;;;12.95;68.09;100934.73;84812;1326;24961;-71
2022/06/04 00:21:14;;;;;;;;;;;;;;;12.94;68.02;100932.14;84794;1327;25311;-71
2022/06/04 00:23:20;;;;;;;;;;;;;;;12.94;67.99;100932.48;84807;1325;22583;-71
2022/06/04 00:25:26;;;;;;;;;;;;;;;12.97;67.91;100929.40;84792;1329;22614;-71
2022/06/04 00:27:32;;;;;;;;;;;;;;;13.02;68.08;100928.48;84795;1327;22593;-71
2022/06/04 00:29:38;;;;;;;;;;;;;;;13.07;67.93;100925.48;84825;1327;22579;-71
2022/06/04 00:31:44;;;;;;;;;;;;;;;13.11;67.48;100921.48;84795;1326;24317;-70
2022/06/04 00:33:50;;;;;;;;;;;;;;;13.13;67.26;100919.25;84813;1326;22560;-70
2022/06/04 00:35:58;;;;;;;;;;;;;;;13.16;67.06;100918.66;84817;1328;22561;-69
2022/06/04 00:38:05;;;;;;;;;;;;;;;13.17;67.09;100917.55;84829;1328;22574;-70
2022/06/04 00:40:12;;;;;;;;;;;;;;;13.16;66.97;100915.13;84834;1327;22557;-70
2022/06/04 00:42:20;;;;;;;;;;;;;;;13.13;67.04;100914.05;84771;1324;22577;-70
2022/06/04 00:45:03;;;;;;;;;;;;;;;13.09;67.26;100914.71;84801;1327;22564;-70
2022/06/04 00:47:13;;;;;;;;;;;;;;;13.06;67.60;100913.63;84802;1325;24228;-70
2022/06/04 00:49:20;;;;;;;;;;;;;;;13.05;67.34;100912.09;84796;1326;22566;-70
2022/06/04 00:51:26;;;;;;;;;;;;;;;13.03;67.24;100911.63;84836;1325;22581;-70
2022/06/04 00:53:33;;;;;;;;;;;;;;;13.00;67.44;100910.35;84789;1330;22688;-70
2022/06/04 00:55:45;;;;;;;;;;;;;;;12.96;67.55;100908.44;84798;1328;24264;-70
2022/06/04 00:58:04;;;;;;;;;;;;;;;12.93;67.57;100905.05;84804;1326;22602;-70
2022/06/04 01:00:12;;;;;;;;;;;;;;;12.90;67.70;100902.16;84815;1327;22632;-70
2022/06/04 01:02:22;;;;;;;;;;;;;;;12.87;68.03;100899.14;84836;1322;22691;-70
2022/06/04 01:04:48;;;;;;;;;;;;;;;12.83;68.18;100894.21;84832;1327;24737;-70
2022/06/04 01:06:57;;;;;;;;;;;;;;;12.78;68.48;100893.35;84818;1324;24276;-70
2022/06/04 01:09:13;;;;;;;;;;;;;;;12.74;68.83;100890.02;84821;1327;22591;-70
2022/06/04 01:11:22;;;;;;;;;;;;;;;12.68;69.00;100890.95;84814;1326;22799;-70
2022/06/04 01:13:35;;;;;;;;;;;;;;;12.62;69.17;100888.89;84866;1329;22804;-70
2022/06/04 01:15:51;;;;;;;;;;;;;;;12.58;69.19;100888.88;84848;1327;22593;-70
2022/06/04 01:18:04;;;;;;;;;;;;;;;12.54;69.33;100887.42;84816;1322;24360;-70
2022/06/04 01:20:17;;;;;;;;;;;;;;;12.53;69.36;100882.25;84814;1325;22573;-70
2022/06/04 01:22:38;;;;;;;;;;;;;;;12.52;69.08;100879.64;84823;1327;22589;-70
2022/06/04 01:24:53;;;;;;;;;;;;;;;12.50;69.28;100876.55;84804;1325;22675;-70
2022/06/04 01:27:18;;;;;;;;;;;;;;;12.48;69.24;100874.74;84832;1328;22747;-70
2022/06/04 01:29:31;;;;;;;;;;;;;;;12.47;69.42;100877.23;84825;1326;25440;-70
2022/06/04 01:31:45;;;;;;;;;;;;;;;12.46;69.87;100879.52;84810;1327;22550;-70
2022/06/04 01:33:53;;;;;;;;;;;;;;;12.43;70.32;100870.01;84841;1329;22562;-70
2022/06/04 01:36:00;;;;;;;;;;;;;;;12.37;70.43;100869.88;84855;1327;25243;-70
2022/06/04 01:38:10;;;;;;;;;;;;;;;12.34;70.69;100868.07;84804;1326;22827;-70
2022/06/04 01:42:37;;;;;;;;;;;;;;;12.26;71.07;100868.36;84637;1329;24248;-70
2022/06/04 01:44:44;;;;;;;;;;;;;;;12.24;71.34;100870.73;84808;1329;24408;-70
2022/06/04 01:46:52;;;;;;;;;;;;;;;12.22;71.48;100868.71;84866;1327;22603;-71
2022/06/04 01:49:03;;;;;;;;;;;;;;;12.22;71.65;100867.31;84809;1327;25409;-70
2022/06/04 01:51:09;;;;;;;;;;;;;;;12.21;71.69;100870.64;84811;1325;25391;-70
2022/06/04 01:53:15;;;;;;;;;;;;;;;12.19;71.93;100866.02;84769;1325;22741;-70
2022/06/04 01:55:22;;;;;;;;;;;;;;;12.14;72.14;100874.39;84790;1327;22777;-69
2022/06/04 01:57:30;;;;;;;;;;;;;;;12.11;72.09;100873.29;84796;1321;22796;-69
2022/06/04 01:59:38;;;;;;;;;;;;;;;12.09;72.71;100877.74;84829;1327;24367;-71
2022/06/04 02:01:44;;;;;;;;;;;;;;;12.07;72.86;100878.52;84797;1327;25412;-70
2022/06/04 02:03:52;;;;;;;;;;;;;;;12.05;73.16;100875.58;84777;1326;24256;-70
2022/06/04 02:05:59;;;;;;;;;;;;;;;12.05;73.22;100873.48;84531;1322;373511;-70
2022/06/04 02:08:05;;;;;;;;;;;;;;;12.05;73.31;100864.25;84798;1326;22784;-70
2022/06/04 02:10:13;;;;;;;;;;;;;;;12.04;73.47;100851.16;84811;1327;22575;-70
2022/06/04 02:12:20;;;;;;;;;;;;;;;12.05;73.57;100845.52;84808;1326;25374;-70
2022/06/04 02:14:28;;;;;;;;;;;;;;;12.05;73.66;100843.10;84756;1326;22567;-70
2022/06/04 02:16:37;;;;;;;;;;;;;;;12.05;73.27;100846.59;84803;1326;22577;-70
2022/06/04 02:18:43;;;;;;;;;;;;;;;12.02;73.29;100840.58;84811;1327;22612;-70
2022/06/04 02:20:49;;;;;;;;;;;;;;;11.99;73.34;100836.13;84769;1327;25417;-70
2022/06/04 02:22:56;;;;;;;;;;;;;;;11.97;73.39;100830.98;84801;1327;22570;-70
2022/06/04 02:25:03;;;;;;;;;;;;;;;11.92;73.37;100833.25;84825;1327;22574;-70
2022/06/04 02:27:09;;;;;;;;;;;;;;;11.87;73.65;100833.05;84813;1327;24241;-70
2022/06/04 02:29:16;;;;;;;;;;;;;;;11.85;73.71;100837.00;84799;1329;25410;-69
2022/06/04 02:31:25;;;;;;;;;;;;;;;11.82;73.76;100835.69;84799;1328;22577;-70
2022/06/04 02:33:37;;;;;;;;;;;;;;;11.81;73.92;100832.91;84819;1327;22590;-68
2022/06/04 02:35:47;;;;;;;;;;;;;;;11.79;73.80;100829.33;84835;1327;22556;-69
2022/06/04 02:37:59;;;;;;;;;;;;;;;11.76;74.13;100826.95;84783;1328;22608;-69
2022/06/04 02:40:11;;;;;;;;;;;;;;;11.75;74.27;100825.44;84810;1327;22608;-70
2022/06/04 02:42:22;;;;;;;;;;;;;;;11.74;74.34;100824.27;84810;1327;25393;-70
2022/06/04 02:44:30;;;;;;;;;;;;;;;11.72;74.66;100820.28;84807;1323;23912;-70
2022/06/04 02:46:39;;;;;;;;;;;;;;;11.71;74.75;100816.66;84799;1325;25399;-70
2022/06/04 02:48:47;;;;;;;;;;;;;;;11.70;74.99;100811.29;84807;1322;22667;-70
2022/06/04 02:50:55;;;;;;;;;;;;;;;11.70;75.36;100815.83;84817;1322;22568;-70
2022/06/04 02:53:00;;;;;;;;;;;;;;;11.71;75.39;100813.49;84822;1325;22661;-70
2022/06/04 02:55:09;;;;;;;;;;;;;;;11.73;75.70;100812.58;84793;1327;22549;-70
2022/06/04 02:57:15;;;;;;;;;;;;;;;11.76;75.98;100812.80;84797;1327;22587;-70
2022/06/04 02:59:21;;;;;;;;;;;;;;;11.79;75.97;100809.89;84823;1327;24369;-70
2022/06/04 03:01:27;;;;;;;;;;;;;;;11.85;75.96;100807.98;84762;1327;22632;-71
2022/06/04 03:03:33;;;;;;;;;;;;;;;11.94;75.90;100807.84;84817;1327;22563;-70
2022/06/04 03:05:40;;;;;;;;;;;;;;;12.04;75.48;100803.77;84814;1326;22968;-70
2022/06/04 03:07:47;;;;;;;;;;;;;;;12.13;75.21;100803.25;84811;1325;22623;-70
2022/06/04 03:09:54;;;;;;;;;;;;;;;12.22;74.97;100804.14;84812;1327;22842;-70
2022/06/04 03:12:00;;;;;;;;;;;;;;;12.31;74.57;100803.45;84798;1327;22568;-70
2022/06/04 03:14:06;;;;;;;;;;;;;;;12.42;74.47;100809.14;84778;1325;22569;-70
2022/06/04 03:16:15;;;;;;;;;;;;;;;12.54;73.96;100812.52;84801;1322;22594;-70
2022/06/04 03:18:22;;;;;;;;;;;;;;;12.67;73.87;100813.42;84795;1327;22573;-70
2022/06/04 03:20:30;;;;;;;;;;;;;;;12.80;73.73;100811.35;84790;1327;23388;-70
2022/06/04 03:22:36;;;;;;;;;;;;;;;12.93;73.43;100811.48;84803;1327;22609;-70
2022/06/04 03:24:42;;;;;;;;;;;;;;;13.09;73.07;100810.17;84818;1327;25445;-70
2022/06/04 03:26:48;;;;;;;;;;;;;;;13.27;72.56;100806.46;84830;1325;22843;-70
2022/06/04 03:28:54;;;;;;;;;;;;;;;13.48;71.97;100800.81;84806;1327;22557;-70
2022/06/04 03:31:00;;;;;;;;;;;;;;;13.71;71.71;100796.83;84825;1321;22870;-70
2022/06/04 03:33:07;;;;;;;;;;;;;;;13.94;71.22;100788.29;84800;1327;22678;-70
2022/06/04 03:35:14;;;;;;;;;;;;;;;14.20;70.80;100788.15;84812;1326;24368;-70
2022/06/04 03:37:20;;;;;;;;;;;;;;;14.45;70.47;100789.96;84835;1327;22571;-70
2022/06/04 03:39:26;;;;;;;;;;;;;;;14.61;70.32;100792.89;84806;1321;22578;-70
2022/06/04 03:41:32;;;;;;;;;;;;;;;14.73;69.84;100799.69;84793;1327;22566;-70
2022/06/04 03:43:38;;;;;;;;;;;;;;;14.82;69.22;100795.91;84804;1325;22667;-70
2022/06/04 03:45:44;;;;;;;;;;;;;;;14.90;69.03;100790.77;84806;1326;22602;-70
2022/06/04 03:47:50;;;;;;;;;;;;;;;15.05;68.76;100790.07;84811;1328;25515;-70
2022/06/04 03:49:56;;;;;;;;;;;;;;;15.18;68.22;100792.90;84777;1327;23917;-70
2022/06/04 03:52:02;;;;;;;;;;;;;;;15.33;67.90;100790.55;84807;1322;22590;-71
2022/06/04 03:54:08;;;;;;;;;;;;;;;15.56;68.35;100788.15;84814;1327;22540;-71
2022/06/04 03:56:14;;;;;;;;;;;;;;;15.82;67.15;100784.15;84803;1321;23016;-69
2022/06/04 03:58:20;;;;;;;;;;;;;;;16.09;66.73;100780.05;84810;1327;22566;-70
2022/06/04 04:00:28;;;;;;;;;;;;;;;16.61;67.44;100776.35;84798;1327;22664;-70
2022/06/04 04:02:34;;;;;;;;;;;;;;;17.35;67.26;100771.29;84801;1328;22583;-71
2022/06/04 04:04:40;;;;;;;;;;;;;;;18.10;65.62;100763.05;84825;1323;24089;-71
2022/06/04 04:06:46;;;;;;;;;;;;;;;18.79;62.16;100763.85;84789;1322;22733;-71
2022/06/04 04:08:52;;;;;;;;;;;;;;;19.41;61.48;100756.21;84802;1326;24257;-71
2022/06/04 04:10:59;;;;;;;;;;;;;;;20.00;59.63;100756.13;84811;1327;22881;-71
2022/06/04 04:13:05;;;;;;;;;;;;;;;20.56;57.44;100754.42;84814;1328;22593;-71
2022/06/04 04:15:12;;;;;;;;;;;;;;;21.07;56.10;100752.36;84832;1327;22570;-71
2022/06/04 04:17:18;;;;;;;;;;;;;;;21.39;54.81;100753.30;84808;1323;22582;-71
2022/06/04 04:19:26;;;;;;;;;;;;;;;21.69;53.57;100751.15;84817;1325;22568;-71
2022/06/04 04:21:40;;;;;;;;;;;;;;;21.87;52.34;100744.59;84829;1321;22565;-71
2022/06/04 04:23:47;;;;;;;;;;;;;;;21.92;51.09;100740.33;84828;1327;22621;-71
2022/06/04 04:25:52;;;;;;;;;;;;;;;21.79;50.68;100735.63;84807;1326;25226;-71
2022/06/04 04:27:59;;;;;;;;;;;;;;;21.74;50.57;100735.19;84818;1327;22665;-71
2022/06/04 04:30:06;;;;;;;;;;;;;;;21.71;48.73;100738.95;84832;1325;22838;-71
2022/06/04 04:32:12;;;;;;;;;;;;;;;21.59;49.64;100741.81;84819;1326;24226;-71
2022/06/04 04:34:18;;;;;;;;;;;;;;;21.50;48.84;100744.63;84833;1322;22591;-71
2022/06/04 04:36:27;;;;;;;;;;;;;;;21.36;48.94;100748.27;84822;1327;22747;-71
2022/06/04 04:38:33;;;;;;;;;;;;;;;21.22;49.33;100751.24;84802;1327;22559;-71
2022/06/04 04:40:41;;;;;;;;;;;;;;;21.06;48.82;100759.16;84835;1327;22561;-71
2022/06/04 04:42:48;;;;;;;;;;;;;;;20.80;49.00;100758.34;84798;1327;22590;-71
2022/06/04 04:44:54;;;;;;;;;;;;;;;20.60;50.06;100756.59;84822;1325;22565;-71
2022/06/04 04:47:00;;;;;;;;;;;;;;;20.49;51.09;100758.98;84805;1327;22571;-71
2022/06/04 04:49:06;;;;;;;;;;;;;;;20.40;52.29;100759.31;84814;1327;22717;-71
2022/06/04 04:51:14;;;;;;;;;;;;;;;20.39;53.22;100752.61;84814;1327;25232;-71
2022/06/04 04:53:20;;;;;;;;;;;;;;;20.48;53.02;100748.25;84822;1327;25409;-71
2022/06/04 04:55:26;;;;;;;;;;;;;;;20.68;52.37;100750.33;84824;1325;22570;-71
2022/06/04 04:57:32;;;;;;;;;;;;;;;20.96;52.24;100752.34;84815;1325;22580;-71
2022/06/04 04:59:38;;;;;;;;;;;;;;;21.42;51.95;100744.38;84802;1328;22838;-71
2022/06/04 05:01:44;;;;;;;;;;;;;;;21.97;50.90;100735.63;84810;1322;22565;-71
2022/06/04 05:03:50;;;;;;;;;;;;;;;22.57;51.13;100734.89;84846;1327;22550;-71
2022/06/04 05:06:00;;;;;;;;;;;;;;;23.28;48.38;100733.88;84839;1324;22765;-71
2022/06/04 05:08:06;;;;;;;;;;;;;;;24.12;47.85;100731.00;84813;1328;22833;-71
2022/06/04 05:10:13;;;;;;;;;;;;;;;24.95;45.43;100735.45;84825;1327;25228;-72
2022/06/04 05:12:19;;;;;;;;;;;;;;;25.64;43.14;100735.58;84781;1327;25407;-72
2022/06/04 05:14:25;;;;;;;;;;;;;;;26.33;42.34;100732.67;84834;1325;25229;-72
2022/06/04 05:16:33;;;;;;;;;;;;;;;27.14;40.58;100730.45;84814;1327;22504;-72
2022/06/04 05:18:39;;;;;;;;;;;;;;;27.82;38.05;100725.39;84813;1327;22809;-72
2022/06/04 05:20:45;;;;;;;;;;;;;;;28.29;37.33;100720.40;84810;1326;22597;-72
2022/06/04 05:22:51;;;;;;;;;;;;;;;28.66;36.79;100724.10;84812;1327;25427;-72
2022/06/04 05:24:57;;;;;;;;;;;;;;;29.14;35.48;100727.64;84833;1327;24593;-72
2022/06/04 05:27:03;;;;;;;;;;;;;;;29.60;34.32;100730.74;84828;1327;22573;-72
2022/06/04 05:29:09;;;;;;;;;;;;;;;29.96;34.05;100724.23;84830;1327;22609;-72
2022/06/04 05:31:15;;;;;;;;;;;;;;;30.33;33.18;100722.61;84838;1327;22582;-72
2022/06/04 05:33:22;;;;;;;;;;;;;;;30.77;31.47;100725.39;84816;1326;22582;-72
2022/06/04 05:35:28;;;;;;;;;;;;;;;31.11;30.88;100734.16;84795;1326;22720;-72
2022/06/04 05:37:34;;;;;;;;;;;;;;;31.44;30.26;100733.80;84787;1327;22577;-72
2022/06/04 05:39:39;;;;;;;;;;;;;;;31.79;30.34;100733.59;84794;1327;22812;-70
2022/06/04 05:41:46;;;;;;;;;;;;;;;32.02;29.12;100731.54;84814;1325;22624;-71
2022/06/04 05:43:52;;;;;;;;;;;;;;;32.21;29.02;100726.71;84810;1327;22606;-71
2022/06/04 05:46:02;;;;;;;;;;;;;;;32.33;28.06;100730.44;84817;1327;22593;-71
2022/06/04 05:48:10;;;;;;;;;;;;;;;32.32;28.91;100733.13;84797;1327;22582;-71
2022/06/04 05:50:16;;;;;;;;;;;;;;;32.81;28.69;100733.11;84793;1325;22563;-71
2022/06/04 05:52:23;;;;;;;;;;;;;;;33.44;27.33;100735.18;84825;1326;22566;-71
2022/06/04 05:54:29;;;;;;;;;;;;;;;33.88;26.79;100730.14;84813;1326;22587;-71
2022/06/04 05:56:36;;;;;;;;;;;;;;;34.21;26.87;100730.87;84790;1324;22585;-71
2022/06/04 05:58:42;;;;;;;;;;;;;;;34.45;26.41;100728.52;84784;1327;24408;-71
2022/06/04 06:00:48;;;;;;;;;;;;;;;34.82;25.88;100733.81;84820;1322;23938;-71
2022/06/04 06:02:54;;;;;;;;;;;;;;;34.84;25.06;100732.48;84786;1326;23875;-71
2022/06/04 06:05:00;;;;;;;;;;;;;;;34.81;24.50;100730.76;84795;1326;24208;-71
2022/06/04 06:07:07;;;;;;;;;;;;;;;34.71;24.36;100729.63;84814;1327;22552;-71
2022/06/04 06:09:13;;;;;;;;;;;;;;;34.79;24.63;100731.75;84810;1327;24253;-71
2022/06/04 06:11:19;;;;;;;;;;;;;;;35.06;24.54;100731.03;84825;1327;25180;-71
2022/06/04 06:13:26;;;;;;;;;;;;;;;35.45;23.82;100725.61;84809;1322;22594;-71
2022/06/04 06:15:32;;;;;;;;;;;;;;;35.59;24.49;100734.60;84832;1326;22562;-71
2022/06/04 06:17:40;;;;;;;;;;;;;;;35.86;24.15;100736.05;84826;1327;22612;-71
2022/06/04 06:19:46;;;;;;;;;;;;;;;35.97;23.41;100736.74;84824;1325;22642;-72
2022/06/04 06:21:52;;;;;;;;;;;;;;;35.99;23.40;100740.59;84816;1325;22565;-72
2022/06/04 06:23:58;;;;;;;;;;;;;;;36.08;23.33;100740.72;84829;1327;22782;-72
2022/06/04 06:26:06;;;;;;;;;;;;;;;36.12;23.25;100740.15;84801;1325;22638;-72
2022/06/04 06:28:14;;;;;;;;;;;;;;;36.15;22.42;100738.92;84828;1327;25412;-72
2022/06/04 06:30:20;;;;;;;;;;;;;;;36.23;22.53;100743.36;84825;1327;22578;-72
2022/06/04 06:32:26;;;;;;;;;;;;;;;36.52;22.69;100739.45;84809;1327;22630;-72
2022/06/04 06:34:32;;;;;;;;;;;;;;;36.90;22.73;100738.71;84831;1326;22561;-72
2022/06/04 06:36:38;;;;;;;;;;;;;;;37.11;21.68;100734.85;84822;1327;22564;-72
2022/06/04 06:38:45;;;;;;;;;;;;;;;37.36;21.36;100740.17;84808;1327;22564;-72
2022/06/04 06:40:53;;;;;;;;;;;;;;;37.52;20.78;100740.13;84812;1323;22650;-71
2022/06/04 06:42:59;;;;;;;;;;;;;;;37.60;20.59;100736.06;84833;1327;22588;-72
2022/06/04 06:45:08;;;;;;;;;;;;;;;37.80;20.29;100730.89;84805;1328;22612;-72
2022/06/04 06:47:14;;;;;;;;;;;;;;;37.77;20.75;100734.91;84824;1329;22576;-72
2022/06/04 06:49:21;;;;;;;;;;;;;;;37.85;20.95;100734.86;84833;1327;22552;-72
2022/06/04 06:51:29;;;;;;;;;;;;;;;37.91;20.36;100733.41;84827;1327;22699;-72
2022/06/04 06:53:36;;;;;;;;;;;;;;;37.87;20.13;100730.83;84797;1328;22575;-72
2022/06/04 06:55:42;;;;;;;;;;;;;;;38.08;20.41;100727.64;84863;1326;22585;-73
2022/06/04 06:57:51;;;;;;;;;;;;;;;38.38;20.26;100724.44;84806;1328;22576;-73
2022/06/04 06:59:57;;;;;;;;;;;;;;;38.58;19.31;100721.19;84807;1327;22953;-72
2022/06/04 07:02:03;;;;;;;;;;;;;;;38.97;19.14;100718.52;84824;1322;22702;-72
2022/06/04 07:04:09;;;;;;;;;;;;;;;39.42;19.24;100721.99;84789;1326;22565;-72
2022/06/04 07:06:15;;;;;;;;;;;;;;;39.41;18.27;100720.04;84824;1326;22572;-72
2022/06/04 07:08:21;;;;;;;;;;;;;;;38.40;19.12;100726.15;84820;1326;22583;-72
2022/06/04 07:10:27;;;;;;;;;;;;;;;37.53;20.35;100735.04;84804;1326;22669;-72
2022/06/04 07:12:33;;;;;;;;;;;;;;;36.98;20.63;100735.92;84837;1327;22586;-72
2022/06/04 07:14:40;;;;;;;;;;;;;;;36.46;20.35;100731.76;84825;1327;24261;-72
2022/06/04 07:16:46;;;;;;;;;;;;;;;35.70;21.42;100731.87;84813;1327;22627;-72
2022/06/04 07:18:52;;;;;;;;;;;;;;;35.32;22.40;100732.89;84811;1325;22625;-72
2022/06/04 07:20:59;;;;;;;;;;;;;;;34.86;22.66;100730.47;84828;1327;22561;-72
2022/06/04 07:23:08;;;;;;;;;;;;;;;34.12;23.80;100730.79;84805;1323;24013;-72
2022/06/04 07:25:15;;;;;;;;;;;;;;;33.50;24.67;100732.31;84816;1323;22653;-72
2022/06/04 07:27:23;;;;;;;;;;;;;;;32.99;24.59;100728.52;84826;1327;22564;-72
2022/06/04 07:29:29;;;;;;;;;;;;;;;32.60;24.93;100730.16;84834;1325;22629;-72
2022/06/04 07:31:35;;;;;;;;;;;;;;;32.10;25.27;100727.30;84798;1326;22566;-72
2022/06/04 07:33:43;;;;;;;;;;;;;;;31.72;26.15;100729.45;84817;1325;25409;-72
2022/06/04 07:35:50;;;;;;;;;;;;;;;31.38;26.52;100729.88;84800;1327;22521;-72
2022/06/04 07:37:56;;;;;;;;;;;;;;;31.11;27.33;100728.77;84770;1327;22947;-72
2022/06/04 07:40:02;;;;;;;;;;;;;;;31.00;27.33;100729.84;84766;1327;22571;-72
2022/06/04 07:42:09;;;;;;;;;;;;;;;31.04;26.99;100733.17;84822;1326;22542;-71
2022/06/04 07:44:16;;;;;;;;;;;;;;;31.12;27.20;100733.07;84812;1326;22642;-71
2022/06/04 07:46:22;;;;;;;;;;;;;;;31.28;27.05;100732.60;84869;1328;22573;-77
2022/06/04 07:48:28;;;;;;;;;;;;;;;31.38;26.94;100736.64;84792;1325;22718;-77
2022/06/04 07:50:34;;;;;;;;;;;;;;;31.41;27.27;100738.33;84806;1327;24278;-77
2022/06/04 07:52:40;;;;;;;;;;;;;;;31.38;27.28;100737.85;84883;1327;22722;-77
2022/06/04 07:54:46;;;;;;;;;;;;;;;31.47;27.01;100733.13;84853;1326;22580;-77
2022/06/04 07:56:55;;;;;;;;;;;;;;;31.57;26.56;100732.79;84881;1327;22564;-77
2022/06/04 07:59:01;;;;;;;;;;;;;;;31.46;26.36;100727.83;84887;1321;24393;-77
2022/06/04 08:01:10;;;;;;;;;;;;;;;31.41;27.11;100727.85;84974;1327;24275;-78
2022/06/04 08:03:16;;;;;;;;;;;;;;;31.37;26.99;100728.20;85180;1327;23058;-77
2022/06/04 08:05:23;;;;;;;;;;;;;;;31.28;26.82;100729.09;85253;1326;22644;-77
2022/06/04 08:07:29;;;;;;;;;;;;;;;30.97;26.97;100734.36;85176;1326;25303;-77
2022/06/04 08:09:35;;;;;;;;;;;;;;;30.64;27.87;100732.88;85016;1326;22581;-77
2022/06/04 08:11:41;;;;;;;;;;;;;;;30.37;28.25;100733.25;84877;1327;22530;-72
2022/06/04 08:13:49;;;;;;;;;;;;;;;29.97;28.52;100737.52;84824;1327;24373;-72
2022/06/04 08:15:57;;;;;;;;;;;;;;;29.47;29.31;100737.27;84797;1327;22583;-71
2022/06/04 08:18:03;;;;;;;;;;;;;;;29.06;29.65;100738.63;84827;1325;25223;-71
2022/06/04 08:20:13;;;;;;;;;;;;;;;28.72;31.19;100736.38;84809;1326;22590;-71
2022/06/04 08:22:20;;;;;;;;;;;;;;;28.38;32.07;100728.07;84805;1327;24207;-71
2022/06/04 08:24:28;;;;;;;;;;;;;;;28.12;32.01;100725.09;84807;1326;22620;-71
2022/06/04 08:26:38;;;;;;;;;;;;;;;27.92;32.13;100720.41;84786;1327;24369;-72
2022/06/04 08:28:45;;;;;;;;;;;;;;;27.70;32.70;100724.04;84817;1327;22616;-71
2022/06/04 08:31:02;;;;;;;;;;;;;;;27.52;33.76;100719.86;84804;1327;25456;-72
2022/06/04 08:33:08;;;;;;;;;;;;;;;27.35;34.32;100718.79;84822;1325;22584;-72
2022/06/04 08:35:14;;;;;;;;;;;;;;;27.14;34.47;100721.10;84821;1327;22623;-72
2022/06/04 08:37:23;;;;;;;;;;;;;;;26.92;35.02;100720.67;84883;1327;22625;-75
2022/06/04 08:39:29;;;;;;;;;;;;;;;26.71;35.37;100718.69;84927;1327;22574;-74
2022/06/04 08:41:58;;;;;;;;;;;;;;;26.52;35.82;100717.92;84842;1326;22718;-74
2022/06/04 08:44:05;;;;;;;;;;;;;;;26.34;36.58;100719.10;84810;1327;24207;-74
2022/06/04 08:46:14;;;;;;;;;;;;;;;26.20;36.89;100722.44;84814;1325;22606;-73
2022/06/04 08:48:21;;;;;;;;;;;;;;;26.02;36.99;100726.55;84847;1322;22557;-73
2022/06/04 08:50:34;;;;;;;;;;;;;;;25.81;37.47;100732.14;84870;1328;24171;-74
2022/06/04 08:52:42;;;;;;;;;;;;;;;25.62;38.16;100734.17;84896;1327;22750;-74
2022/06/04 08:59:41;;;;;;;;;;;;;;;25.18;38.75;100729.59;84842;1328;22587;-73
2022/06/04 09:01:53;;;;;;;;;;;;;;;25.11;39.49;100732.06;84953;1326;22597;-74
2022/06/04 09:04:03;;;;;;;;;;;;;;;25.03;38.62;100729.33;85176;1327;22822;-74
2022/06/04 09:06:28;;;;;;;;;;;;;;;25.00;39.45;100725.02;85161;1326;22637;-74
2022/06/04 09:08:50;;;;;;;;;;;;;;;24.97;39.66;100720.44;84974;1330;24393;-74
2022/06/04 09:10:59;;;;;;;;;;;;;;;24.98;40.52;100716.46;85219;1326;22727;-75
2022/06/04 09:13:13;;;;;;;;;;;;;;;25.01;40.63;100715.46;85181;1322;23223;-75
2022/06/04 09:15:20;;;;;;;;;;;;;;;25.02;40.97;100715.88;85031;1323;22651;-74
2022/06/04 09:17:37;;;;;;;;;;;;;;;25.04;40.49;100717.70;85093;1327;22625;-74
2022/06/04 09:19:44;;;;;;;;;;;;;;;25.06;40.94;100719.09;85106;1321;22605;-75
2022/06/04 09:21:50;;;;;;;;;;;;;;;25.04;41.26;100716.03;85116;1327;22674;-75
2022/06/04 09:23:56;;;;;;;;;;;;;;;25.03;41.26;100714.59;85110;1322;22587;-74
2022/06/04 09:26:05;;;;;;;;;;;;;;;25.01;40.94;100716.84;85101;1327;23063;-76
2022/06/04 09:28:20;;;;;;;;;;;;;;;24.98;41.44;100720.38;85089;1325;22602;-74
2022/06/04 09:30:28;;;;;;;;;;;;;;;24.93;41.89;100722.40;85141;1323;22744;-74
2022/06/04 09:32:50;;;;;;;;;;;;;;;24.87;42.11;100722.21;85005;1331;25406;-74
2022/06/04 09:34:56;;;;;;;;;;;;;;;24.83;42.02;100722.64;85019;1327;25480;-74
2022/06/04 09:37:02;;;;;;;;;;;;;;;24.80;42.00;100726.70;85125;1323;22614;-74
2022/06/04 09:39:19;;;;;;;;;;;;;;;24.78;42.28;100728.42;85112;1325;22615;-74
2022/06/04 09:41:27;;;;;;;;;;;;;;;24.76;42.25;100728.27;85093;1329;22623;-75
2022/06/04 09:43:36;;;;;;;;;;;;;;;24.74;42.89;100729.01;85129;1327;22956;-74
2022/06/04 09:45:42;;;;;;;;;;;;;;;24.73;43.11;100727.51;85169;1327;22640;-74
2022/06/04 09:47:51;;;;;;;;;;;;;;;24.70;42.92;100728.98;85130;1328;25467;-74
2022/06/04 09:49:59;;;;;;;;;;;;;;;24.67;43.46;100730.33;85003;1325;22572;-75
2022/06/04 09:52:20;;;;;;;;;;;;;;;24.66;43.48;100729.31;85063;1323;22521;-75
2022/06/04 09:54:28;;;;;;;;;;;;;;;24.67;43.00;100730.16;84967;1327;22711;-75
2022/06/04 09:56:40;;;;;;;;;;;;;;;24.68;43.09;100732.70;85055;1321;22756;-74
2022/06/04 09:58:53;;;;;;;;;;;;;;;24.69;42.78;100735.13;85082;1326;23173;-74
2022/06/04 10:01:02;;;;;;;;;;;;;;;24.66;42.43;100732.59;85056;1322;22575;-75
2022/06/04 10:03:15;;;;;;;;;;;;;;;24.61;42.57;100734.23;85031;1326;23174;-74
2022/06/04 10:05:23;;;;;;;;;;;;;;;24.56;43.07;100733.45;84894;1325;272702;-74
2022/06/04 10:07:33;;;;;;;;;;;;;;;24.55;43.36;100737.67;85034;1325;22903;-75
2022/06/04 10:09:56;;;;;;;;;;;;;;;24.57;43.47;100736.48;84912;1329;22631;-74
2022/06/04 10:12:21;;;;;;;;;;;;;;;24.59;42.78;100733.95;85071;1322;24206;-74
2022/06/04 10:14:31;;;;;;;;;;;;;;;24.61;42.84;100733.38;84974;1326;22571;-74
2022/06/04 10:16:41;;;;;;;;;;;;;;;24.67;43.21;100730.87;85021;1327;22553;-74
2022/06/04 10:18:59;;;;;;;;;;;;;;;24.73;42.93;100729.61;84826;1330;22634;-74
2022/06/04 10:21:07;;;;;;;;;;;;;;;24.78;43.01;100730.63;85067;1327;22605;-74
2022/06/04 10:23:15;;;;;;;;;;;;;;;24.81;43.06;100730.36;84999;1322;22690;-74
2022/06/04 10:25:24;;;;;;;;;;;;;;;24.86;43.03;100731.08;85008;1327;22573;-74
2022/06/04 10:27:37;;;;;;;;;;;;;;;24.89;43.36;100734.56;85045;1326;22637;-74
2022/06/04 10:30:15;;;;;;;;;;;;;;;24.95;43.90;100734.38;85036;1325;22575;-78
2022/06/04 10:32:24;;;;;;;;;;;;;;;25.03;43.37;100737.23;84849;1325;22713;-78
2022/06/04 10:34:34;;;;;;;;;;;;;;;25.09;43.19;100741.46;84784;1323;22664;-78
2022/06/04 10:36:50;;;;;;;;;;;;;;;25.11;42.80;100737.33;84783;1326;24223;-78
2022/06/04 10:39:13;;;;;;;;;;;;;;;25.14;42.70;100741.31;84700;1328;22716;-78
2022/06/04 10:41:30;;;;;;;;;;;;;;;25.18;42.26;100738.84;84830;1326;24383;-79
2022/06/04 10:43:47;;;;;;;;;;;;;;;25.24;42.40;100738.83;84732;1327;22599;-78
2022/06/04 10:45:55;;;;;;;;;;;;;;;25.26;42.40;100735.23;84839;1326;22563;-78
2022/06/04 10:48:06;;;;;;;;;;;;;;;25.30;42.65;100732.55;84826;1329;22957;-78
2022/06/04 10:50:19;;;;;;;;;;;;;;;25.36;43.14;100734.52;84817;1327;22613;-78
2022/06/04 10:52:28;;;;;;;;;;;;;;;25.40;42.70;100732.13;84802;1327;25926;-79
2022/06/04 10:54:37;;;;;;;;;;;;;;;25.46;42.63;100731.07;84830;1327;22752;-79
2022/06/04 10:56:49;;;;;;;;;;;;;;;25.48;42.71;100727.60;84822;1325;22554;-78
2022/06/04 10:58:59;;;;;;;;;;;;;;;25.51;42.50;100725.90;84806;1327;24742;-77
2022/06/04 11:01:08;;;;;;;;;;;;;;;25.57;42.85;100726.58;84820;1327;22557;-78
2022/06/04 11:03:16;;;;;;;;;;;;;;;25.64;42.95;100722.92;84809;1327;22664;-77
2022/06/04 11:05:25;;;;;;;;;;;;;;;25.72;42.78;100723.02;84792;1327;24382;-78
2022/06/04 11:07:38;;;;;;;;;;;;;;;25.84;42.56;100717.80;84847;1326;22555;-79
2022/06/04 11:09:44;;;;;;;;;;;;;;;25.88;41.26;100714.89;84811;1327;25511;-78
2022/06/04 11:11:52;;;;;;;;;;;;;;;25.86;41.07;100716.70;84830;1327;22686;-78